Time;durP1;ratioP1;P1;durP2;ratioP2;P2;SDS_P1;SDS_P2;PMS_P1;PMS_P2;Temp;Humidity;BMP_temperature;BMP_pressure;BME280_temperature;BME280_humidity;BME280_pressure;Samples;Min_cycle;Max_cycle;Signal;HPM_P1;HPM_P2
2023/08/22 00:01:25;;;;;;;9.90;8.90;;;25.30;82.60;;;25.94;55.24;95271.63;5072335;28;20484;-61
2023/08/22 00:03:56;;;;;;;10.17;9.10;;;25.30;83.10;;;25.88;55.21;95275.25;5069500;28;20523;-56
2023/08/22 00:06:24;;;;;;;10.40;9.03;;;25.20;83.10;;;25.82;55.45;95271.56;5078710;28;20430;-59
2023/08/22 00:08:52;;;;;;;10.67;9.50;;;25.20;83.40;;;25.74;55.57;95272.69;5073514;28;20887;-58
2023/08/22 00:11:20;;;;;;;13.00;9.60;;;25.10;83.40;;;25.67;55.99;95282.75;5069480;28;20898;-56
2023/08/22 00:13:47;;;;;;;10.20;9.20;;;25.00;83.40;;;25.59;55.43;95288.41;5071128;28;20488;-55
2023/08/22 00:16:15;;;;;;;12.27;9.30;;;24.90;83.60;;;25.49;56.34;95298.88;5073345;28;20446;-55
2023/08/22 00:18:42;;;;;;;17.13;11.10;;;24.90;84.00;;;25.37;56.41;95296.91;5069063;28;20990;-59
2023/08/22 00:21:09;;;;;;;11.17;9.60;;;24.80;84.80;;;25.30;56.68;95298.00;5071898;28;20555;-56
2023/08/22 00:23:37;;;;;;;10.90;9.27;;;24.70;84.80;;;25.19;56.60;95292.31;5068415;28;20474;-56
2023/08/22 00:26:05;;;;;;;11.93;9.10;;;24.60;84.70;;;25.14;56.43;95294.81;5077185;28;20449;-59
2023/08/22 00:28:33;;;;;;;17.00;9.20;;;24.50;85.50;;;25.08;56.78;95295.69;5071616;28;20846;-59
2023/08/22 00:31:00;;;;;;;11.83;10.63;;;24.50;86.10;;;25.03;57.24;95288.28;5079204;28;20842;-58
2023/08/22 00:33:28;;;;;;;12.60;9.60;;;24.40;86.30;;;24.97;57.41;95294.56;5070443;28;20467;-59
2023/08/22 00:35:55;;;;;;;19.03;9.70;;;24.40;86.60;;;24.92;57.61;95286.31;5074851;28;20461;-56
2023/08/22 00:38:22;;;;;;;11.93;9.93;;;24.30;86.90;;;24.85;57.71;95285.56;5076693;28;20990;-59
2023/08/22 00:40:50;;;;;;;11.97;10.77;;;24.20;87.50;;;24.79;57.18;95278.34;5074340;28;20490;-58
2023/08/22 00:43:17;;;;;;;10.23;9.23;;;24.20;87.90;;;24.75;57.89;95283.34;5077127;28;20478;-55
2023/08/22 00:45:45;;;;;;;12.83;10.10;;;24.20;88.60;;;24.72;58.29;95278.38;5071331;28;20523;-54
2023/08/22 00:48:13;;;;;;;12.77;9.80;;;24.10;88.90;;;24.72;58.36;95274.88;5072883;28;21301;-56
2023/08/22 00:50:40;;;;;;;14.13;10.17;;;24.10;89.70;;;24.75;58.44;95271.75;5074020;28;20507;-60
2023/08/22 00:53:07;;;;;;;12.10;10.10;;;24.10;89.90;;;24.76;57.94;95276.91;5073044;28;20906;-56
2023/08/22 00:55:34;;;;;;;10.23;9.27;;;24.10;90.20;;;24.78;57.76;95282.09;5074514;28;20529;-57
2023/08/22 00:58:02;;;;;;;9.83;8.93;;;24.20;90.20;;;24.78;57.69;95277.50;5073448;28;20484;-59
2023/08/22 01:00:30;;;;;;;10.57;9.50;;;24.20;89.70;;;24.76;58.36;95273.41;5072847;28;20490;-60
2023/08/22 01:02:59;;;;;;;10.07;9.07;;;24.10;89.90;;;24.73;58.26;95271.16;5077563;28;20495;-60
2023/08/22 01:05:26;;;;;;;10.17;9.23;;;24.10;90.20;;;24.73;58.21;95276.53;5079007;28;20449;-54
2023/08/22 01:07:56;;;;;;;14.53;9.80;;;24.10;90.20;;;24.72;57.83;95280.25;5070706;28;20563;-58
2023/08/22 01:10:28;;;;;;;13.33;10.00;;;24.10;90.20;;;24.69;58.17;95279.66;5070844;28;20450;-59
2023/08/22 01:13:04;;;;;;;10.67;9.57;;;24.10;90.20;;;24.65;58.69;95281.13;5078991;28;21343;-58
2023/08/22 01:15:34;;;;;;;13.40;10.07;;;24.00;90.10;;;24.61;58.81;95287.16;5075068;28;20488;-60
2023/08/22 01:18:04;;;;;;;10.90;9.57;;;24.00;90.60;;;24.57;58.19;95284.09;5077840;28;20477;-56
2023/08/22 01:20:31;;;;;;;10.00;9.10;;;24.00;90.70;;;24.59;59.05;95289.25;5069504;28;21142;-55
2023/08/22 01:23:00;;;;;;;9.57;8.60;;;23.90;90.90;;;24.60;59.12;95289.03;5071460;28;20571;-58
2023/08/22 01:25:28;;;;;;;10.67;9.47;;;23.90;91.00;;;24.60;59.28;95283.66;5076024;28;20450;-60
2023/08/22 01:28:05;;;;;;;11.60;9.37;;;23.90;91.20;;;24.60;59.10;95286.34;5071492;28;20568;-55
2023/08/22 01:30:36;;;;;;;13.10;9.67;;;24.00;91.30;;;24.61;58.43;95289.84;5075440;28;20469;-60
2023/08/22 01:33:07;;;;;;;11.87;10.73;;;24.00;91.40;;;24.61;58.60;95282.59;5069985;28;20597;-56
2023/08/22 01:35:35;;;;;;;9.77;8.93;;;24.00;91.40;;;24.61;59.06;95285.28;5076239;28;20446;-58
2023/08/22 01:38:04;;;;;;;10.97;9.97;;;24.00;91.50;;;24.62;59.26;95286.13;5069896;28;20478;-59
2023/08/22 01:40:31;;;;;;;13.20;9.63;;;24.00;91.60;;;24.60;58.60;95286.34;5076388;28;20497;-54
2023/08/22 01:42:58;;;;;;;9.80;8.90;;;24.00;91.70;;;24.60;59.26;95280.13;5069386;28;20838;-55
2023/08/22 01:45:26;;;;;;;9.87;8.93;;;23.90;91.70;;;24.59;58.98;95287.38;5072762;28;20454;-56
2023/08/22 01:47:53;;;;;;;16.93;9.30;;;23.90;91.70;;;24.59;58.77;95287.38;5070856;28;20828;-59
2023/08/22 01:50:21;;;;;;;16.13;10.40;;;23.90;91.90;;;24.57;59.43;95289.47;5071015;28;20458;-59
2023/08/22 01:52:48;;;;;;;16.07;9.53;;;23.90;92.00;;;24.58;59.50;95284.91;5074466;28;20447;-55
2023/08/22 01:55:19;;;;;;;10.73;9.73;;;23.90;92.00;;;24.58;59.14;95283.03;5069821;28;20454;-58
2023/08/22 01:57:46;;;;;;;10.63;9.63;;;23.90;92.10;;;24.56;58.91;95290.47;5072576;28;20451;-55
2023/08/22 02:00:14;;;;;;;11.83;8.90;;;23.90;92.20;;;24.55;59.18;95296.88;5072063;28;20486;-58
2023/08/22 02:02:41;;;;;;;10.03;9.13;;;23.90;92.20;;;24.54;59.41;95287.19;5069735;28;20893;-58
2023/08/22 02:05:09;;;;;;;11.57;9.80;;;23.90;92.30;;;24.50;59.25;95283.28;5073478;28;20486;-55
2023/08/22 02:07:36;;;;;;;10.57;9.30;;;23.90;92.40;;;24.49;59.74;95282.47;5070757;28;20527;-55
2023/08/22 02:10:04;;;;;;;12.03;9.80;;;23.90;92.40;;;24.48;59.50;95285.38;5068963;28;20562;-56
2023/08/22 02:12:33;;;;;;;16.50;9.17;;;23.80;92.40;;;24.48;58.98;95288.06;5074293;28;20469;-55
2023/08/22 02:15:00;;;;;;;15.03;8.80;;;23.80;92.40;;;24.45;59.58;95280.41;5070702;28;20455;-56
2023/08/22 02:17:28;;;;;;;10.27;9.27;;;23.80;92.60;;;24.44;59.30;95281.44;5074547;28;20445;-55
2023/08/22 02:19:55;;;;;;;17.20;10.27;;;23.80;92.70;;;24.42;59.54;95278.16;5069600;28;20470;-59
2023/08/22 02:22:22;;;;;;;15.77;10.30;;;23.80;92.80;;;24.40;60.04;95282.91;5069357;28;20454;-57
2023/08/22 02:24:49;;;;;;;12.07;10.00;;;23.80;92.90;;;24.36;59.95;95287.09;5073625;28;20467;-59
2023/08/22 02:27:17;;;;;;;12.47;10.07;;;23.70;92.80;;;24.33;60.07;95277.59;5070664;28;20461;-60
2023/08/22 02:29:45;;;;;;;13.87;9.90;;;23.70;92.80;;;24.30;60.01;95284.22;5030665;28;1127792;-59
2023/08/22 02:32:12;;;;;;;18.70;10.20;;;23.70;93.10;;;24.29;59.38;95281.72;5075296;28;20348;-56
2023/08/22 02:34:40;;;;;;;12.03;10.53;;;23.60;93.00;;;24.26;60.26;95292.91;5070068;28;20505;-56
2023/08/22 02:37:07;;;;;;;10.73;9.70;;;23.60;93.30;;;24.22;60.37;95287.16;5076203;28;20663;-56
2023/08/22 02:39:34;;;;;;;16.67;10.53;;;23.60;93.40;;;24.19;60.37;95282.22;5069233;28;20520;-59
2023/08/22 02:42:01;;;;;;;16.93;9.97;;;23.60;93.60;;;24.16;60.65;95290.69;5074087;28;20485;-58
2023/08/22 02:44:29;;;;;;;12.33;10.27;;;23.60;93.70;;;24.12;60.71;95290.31;5069034;28;20471;-56
2023/08/22 02:46:57;;;;;;;18.63;10.10;;;23.50;93.80;;;24.11;60.74;95293.22;5073503;28;20562;-59
2023/08/22 02:49:24;;;;;;;11.20;10.17;;;23.50;94.00;;;24.10;60.58;95291.56;5072652;28;20458;-59
2023/08/22 02:51:52;;;;;;;11.50;9.53;;;23.50;94.00;;;24.09;60.32;95287.22;5071654;28;20458;-59
2023/08/22 02:54:19;;;;;;;12.23;10.90;;;23.50;94.10;;;24.08;60.53;95296.34;5074491;28;20471;-55
2023/08/22 02:56:46;;;;;;;11.20;10.07;;;23.40;94.20;;;24.06;60.71;95303.75;5069477;28;20534;-57
2023/08/22 02:59:13;;;;;;;12.60;10.70;;;23.40;94.30;;;24.05;60.34;95305.63;5071717;28;20477;-55
2023/08/22 03:01:40;;;;;;;11.73;10.50;;;23.40;94.40;;;24.02;61.02;95297.19;5072617;28;20807;-57
2023/08/22 03:04:09;;;;;;;10.60;9.50;;;23.40;94.40;;;24.00;61.14;95300.09;5074118;28;20535;-59
2023/08/22 03:06:37;;;;;;;12.53;10.63;;;23.40;94.60;;;23.97;60.47;95303.19;5080999;28;20549;-59
2023/08/22 03:09:05;;;;;;;13.20;11.40;;;23.40;94.60;;;23.95;60.71;95306.09;5071964;28;20470;-56
2023/08/22 03:11:32;;;;;;;11.43;10.23;;;23.40;94.80;;;23.93;60.70;95301.97;5072611;28;20451;-59
2023/08/22 03:14:00;;;;;;;12.50;10.27;;;23.30;94.80;;;23.89;61.20;95298.03;5071386;28;20509;-60
2023/08/22 03:16:27;;;;;;;10.43;9.43;;;23.30;94.70;;;23.87;61.31;95305.50;5072741;28;20481;-58
2023/08/22 03:18:57;;;;;;;16.93;11.40;;;23.20;94.80;;;23.82;60.59;95303.41;5070597;28;21044;-56
2023/08/22 03:21:25;;;;;;;11.57;10.37;;;23.20;94.90;;;23.79;60.87;95303.84;5068782;28;20560;-56
2023/08/22 03:23:52;;;;;;;17.00;12.23;;;23.20;95.00;;;23.77;61.04;95312.09;5069704;28;20562;-58
2023/08/22 03:26:20;;;;;;;11.97;10.60;;;23.10;95.00;;;23.74;60.80;95315.22;5074666;28;20449;-55
2023/08/22 03:28:47;;;;;;;12.03;10.40;;;23.10;95.00;;;23.75;61.49;95324.94;5068114;28;20719;-56
2023/08/22 03:31:15;;;;;;;16.10;9.80;;;23.10;95.10;;;23.76;61.22;95317.69;5069665;28;20450;-55
2023/08/22 03:33:42;;;;;;;14.90;10.33;;;23.10;95.20;;;23.77;61.07;95313.97;5074853;28;20559;-54
2023/08/22 03:36:09;;;;;;;13.40;10.70;;;23.20;95.20;;;23.79;61.18;95325.34;5068772;28;20482;-56
2023/08/22 03:38:38;;;;;;;12.53;11.17;;;23.10;95.10;;;23.79;60.85;95325.34;5074491;28;20470;-57
2023/08/22 03:41:05;;;;;;;11.23;10.13;;;23.20;95.20;;;23.79;61.21;95320.78;5067709;28;20494;-57
2023/08/22 03:43:32;;;;;;;14.80;10.90;;;23.20;95.40;;;23.80;61.23;95321.63;5073638;28;20473;-55
2023/08/22 03:46:00;;;;;;;13.33;10.23;;;23.20;95.20;;;23.76;60.52;95315.00;5071655;28;20450;-56
2023/08/22 03:48:27;;;;;;;11.63;10.53;;;23.20;95.10;;;23.79;61.12;95319.97;5072910;28;20477;-56
2023/08/22 03:50:54;;;;;;;11.50;10.30;;;23.20;95.20;;;23.79;60.59;95325.34;5070084;28;20454;-58
2023/08/22 03:53:22;;;;;;;17.20;11.37;;;23.20;95.30;;;23.78;60.39;95329.03;5071562;28;20474;-59
2023/08/22 03:55:51;;;;;;;17.33;10.60;;;23.20;95.20;;;23.77;60.48;95327.41;5072457;28;20504;-56
2023/08/22 03:58:18;;;;;;;14.50;10.80;;;23.10;95.20;;;23.74;61.42;95317.91;5067797;28;20518;-60
2023/08/22 04:00:45;;;;;;;12.73;10.60;;;23.20;95.40;;;23.73;60.69;95323.50;5070402;28;20505;-59
2023/08/22 04:03:12;;;;;;;14.33;10.73;;;23.10;95.30;;;23.71;60.88;95320.19;5070377;28;20474;-56
2023/08/22 04:05:42;;;;;;;12.57;11.03;;;23.10;95.30;;;23.68;61.39;95318.75;5080911;28;20498;-55
2023/08/22 04:08:09;;;;;;;19.70;10.67;;;23.10;95.70;;;23.63;60.93;95311.31;5074240;28;20545;-57
2023/08/22 04:10:37;;;;;;;13.43;11.00;;;23.10;95.80;;;23.61;61.56;95323.34;5070569;28;20447;-59
2023/08/22 04:13:05;;;;;;;14.50;10.87;;;23.00;95.70;;;23.58;61.13;95321.88;5071528;28;20914;-60
2023/08/22 04:15:35;;;;;;;13.07;10.40;;;23.00;95.80;;;23.56;61.53;95332.00;5072768;28;20451;-57
2023/08/22 04:18:03;;;;;;;15.47;10.87;;;23.00;96.00;;;23.55;61.33;95329.53;5070358;28;20539;-56
2023/08/22 04:20:30;;;;;;;14.47;10.73;;;22.90;96.00;;;23.54;61.70;95336.75;5065328;28;20529;-56
2023/08/22 04:22:57;;;;;;;16.13;11.57;;;22.90;96.10;;;23.53;61.13;95329.75;5068039;28;20465;-59
2023/08/22 04:25:25;;;;;;;21.53;12.70;;;22.90;96.10;;;23.52;61.67;95330.78;5071762;28;20453;-58
2023/08/22 04:27:52;;;;;;;16.93;11.43;;;22.90;96.20;;;23.50;61.80;95327.47;5070883;28;20999;-59
2023/08/22 04:30:21;;;;;;;19.10;12.13;;;22.90;96.20;;;23.49;62.19;95331.19;5070927;28;20450;-57
2023/08/22 04:32:48;;;;;;;19.80;12.53;;;22.90;96.40;;;23.47;61.50;95333.28;5068330;28;20508;-56
2023/08/22 04:35:15;;;;;;;17.87;12.77;;;22.90;96.40;;;23.46;61.95;95339.66;5069827;28;20450;-59
2023/08/22 04:37:42;;;;;;;16.20;12.87;;;22.90;96.40;;;23.47;62.22;95354.75;5070270;28;20450;-56
2023/08/22 04:40:11;;;;;;;18.00;12.10;;;22.90;96.60;;;23.48;62.38;95345.66;5069375;28;20451;-55
2023/08/22 04:42:38;;;;;;;16.13;12.27;;;22.90;96.70;;;23.49;62.52;95355.34;5072906;28;20494;-59
2023/08/22 04:45:07;;;;;;;11.50;10.40;;;22.90;97.10;;;23.46;62.21;95355.78;5074659;28;20871;-60
2023/08/22 04:47:36;;;;;;;15.13;11.20;;;22.90;97.00;;;23.47;62.57;95362.81;5068192;28;20519;-60
2023/08/22 04:50:04;;;;;;;13.40;11.10;;;22.90;97.00;;;23.48;62.84;95356.38;5074155;28;20446;-55
2023/08/22 04:52:31;;;;;;;13.23;11.73;;;22.90;97.10;;;23.51;62.70;95361.34;5065930;28;20457;-60
2023/08/22 04:54:58;;;;;;;14.87;11.73;;;22.90;97.10;;;23.54;62.10;95371.66;5072061;28;20660;-59
2023/08/22 04:57:26;;;;;;;14.07;12.67;;;22.90;97.20;;;23.56;62.07;95369.63;5065758;28;20453;-61
2023/08/22 04:59:54;;;;;;;16.23;12.07;;;22.90;97.30;;;23.59;62.22;95366.50;5070113;28;20471;-60
2023/08/22 05:02:21;;;;;;;17.00;12.40;;;23.00;97.40;;;23.63;62.04;95369.59;5069286;28;20492;-57
2023/08/22 05:04:50;;;;;;;22.13;12.07;;;23.00;97.50;;;23.68;62.47;95374.34;5068331;28;20562;-56
2023/08/22 05:07:17;;;;;;;13.13;11.70;;;23.10;97.40;;;23.72;62.77;95375.53;5068802;28;20875;-61
2023/08/22 05:09:44;;;;;;;20.70;12.63;;;23.10;97.40;;;23.78;62.52;95369.34;5068570;28;20474;-60
2023/08/22 05:12:12;;;;;;;14.13;12.30;;;23.20;97.40;;;23.86;61.72;95362.94;5072046;28;20956;-61
2023/08/22 05:14:39;;;;;;;16.33;12.73;;;23.20;97.20;;;23.92;62.58;95365.63;5076018;28;20481;-56
2023/08/22 05:17:06;;;;;;;21.80;12.50;;;23.30;97.30;;;23.96;62.20;95364.16;5072684;28;20912;-59
2023/08/22 05:19:34;;;;;;;16.23;12.10;;;23.30;97.10;;;24.03;62.03;95361.47;5078814;28;20469;-57
2023/08/22 05:22:02;;;;;;;16.50;13.23;;;23.40;97.10;;;24.08;62.15;95363.53;5072708;28;20485;-59
2023/08/22 05:24:30;;;;;;;18.77;13.70;;;23.40;97.20;;;24.11;61.59;95365.78;5075000;28;20497;-56
2023/08/22 05:26:57;;;;;;;19.00;12.70;;;23.50;97.20;;;24.13;61.17;95366.38;5070262;28;20458;-59
2023/08/22 05:29:24;;;;;;;16.67;11.43;;;23.50;96.90;;;24.20;61.46;95358.28;5074208;28;20900;-60
2023/08/22 05:31:51;;;;;;;18.27;12.90;;;23.60;97.10;;;24.27;61.69;95364.47;5069507;28;20528;-60
2023/08/22 05:34:18;;;;;;;33.07;11.70;;;23.60;96.80;;;24.37;61.23;95353.25;5073520;28;20530;-59
2023/08/22 05:36:46;;;;;;;12.47;11.17;;;23.70;96.80;;;24.49;60.79;95354.22;5072302;28;20874;-61
2023/08/22 05:39:14;;;;;;;18.67;12.30;;;23.80;96.80;;;24.63;60.88;95361.22;5071272;28;20532;-56
2023/08/22 05:41:42;;;;;;;15.20;12.80;;;23.90;96.70;;;24.79;60.56;95362.56;5067626;28;20489;-56
2023/08/22 05:44:09;;;;;;;17.30;12.20;;;24.10;96.80;;;24.97;60.62;95364.53;5074185;28;20478;-60
2023/08/22 05:46:36;;;;;;;14.07;12.13;;;24.30;96.60;;;25.15;60.49;95361.06;5072286;28;20857;-58
2023/08/22 05:49:03;;;;;;;14.30;11.77;;;24.40;96.40;;;25.32;60.22;95358.69;5068974;28;20474;-58
2023/08/22 05:51:30;;;;;;;18.30;13.00;;;24.60;96.20;;;25.50;59.47;95363.31;5073352;28;20920;-60
2023/08/22 05:53:58;;;;;;;19.93;12.80;;;24.80;96.10;;;25.67;59.01;95355.47;5071589;28;20471;-59
2023/08/22 05:56:26;;;;;;;21.30;11.90;;;24.90;95.60;;;25.83;59.00;95361.34;5071663;28;20460;-55
2023/08/22 05:58:54;;;;;;;17.93;11.30;;;25.10;95.20;;;25.98;58.36;95356.44;5079352;28;20474;-60
2023/08/22 06:01:21;;;;;;;17.40;13.03;;;25.20;94.90;;;26.16;58.21;95350.19;5076622;28;20485;-55
2023/08/22 06:03:49;;;;;;;20.73;12.20;;;25.40;94.70;;;26.32;57.74;95348.78;5068985;28;20545;-56
2023/08/22 06:06:16;;;;;;;17.60;12.80;;;25.60;94.40;;;26.51;57.54;95356.81;5082215;28;20447;-58
2023/08/22 06:08:43;;;;;;;20.53;13.60;;;25.70;94.00;;;26.68;56.57;95357.03;5069472;28;20470;-59
2023/08/22 06:11:10;;;;;;;20.80;12.07;;;25.90;93.80;;;26.85;56.79;95363.44;5076555;28;20492;-59
2023/08/22 06:13:39;;;;;;;15.20;12.20;;;26.10;93.40;;;27.02;56.27;95355.53;5070615;28;20554;-56
2023/08/22 06:16:06;;;;;;;18.13;13.40;;;26.20;92.80;;;27.19;56.19;95359.19;5076579;28;20812;-56
2023/08/22 06:18:34;;;;;;;22.73;13.07;;;26.40;92.60;;;27.36;55.39;95355.84;5069640;28;20967;-60
2023/08/22 06:21:01;;;;;;;18.70;12.93;;;26.50;92.20;;;27.52;55.18;95352.44;5069070;28;20458;-60
2023/08/22 06:23:28;;;;;;;19.77;13.10;;;26.70;91.50;;;27.68;54.54;95355.50;5068158;28;20650;-59
2023/08/22 06:25:55;;;;;;;18.00;13.23;;;26.90;91.30;;;27.85;54.05;95355.59;5071247;28;20514;-57
2023/08/22 06:28:23;;;;;;;21.60;12.50;;;27.00;90.80;;;28.02;54.15;95355.72;5072249;28;20543;-60
2023/08/22 06:30:51;;;;;;;28.80;12.10;;;27.20;90.60;;;28.22;53.91;95355.34;5077490;28;20461;-55
2023/08/22 06:33:18;;;;;;;26.90;14.50;;;27.40;90.20;;;28.32;53.37;95355.56;5070110;28;20492;-60
2023/08/22 06:35:47;;;;;;;19.47;13.20;;;27.60;89.40;;;28.43;53.73;95356.59;5074370;28;20457;-57
2023/08/22 06:38:14;;;;;;;27.40;13.93;;;27.70;89.10;;;28.56;52.56;95350.88;5070086;28;20547;-61
2023/08/22 06:40:41;;;;;;;25.77;12.77;;;27.80;87.30;;;28.67;52.77;95356.50;5076361;28;20499;-56
2023/08/22 06:43:09;;;;;;;18.67;13.07;;;27.90;87.20;;;28.79;51.82;95349.97;5068915;28;20526;-55
2023/08/22 06:45:36;;;;;;;19.30;12.90;;;28.00;86.50;;;28.95;52.45;95351.09;5076539;28;20453;-55
2023/08/22 06:48:06;;;;;;;18.10;12.43;;;28.20;86.20;;;29.13;51.58;95349.22;5067886;28;20235;-57
2023/08/22 06:50:33;;;;;;;21.27;13.03;;;28.30;85.60;;;29.30;51.61;95350.06;5072135;28;20527;-61
2023/08/22 06:53:01;;;;;;;13.23;11.53;;;28.40;84.90;;;29.47;50.76;95351.97;5074329;28;20475;-58
2023/08/22 06:55:28;;;;;;;18.90;11.30;;;28.60;84.20;;;29.62;50.55;95351.38;5070250;28;20238;-57
2023/08/22 06:57:56;;;;;;;19.67;11.80;;;28.80;83.80;;;29.80;50.19;95347.59;5074518;28;20224;-60
2023/08/22 07:00:24;;;;;;;17.67;12.07;;;28.90;83.00;;;29.96;50.64;95340.50;5072996;28;20210;-60
2023/08/22 07:02:51;;;;;;;22.13;10.63;;;29.10;81.90;;;30.14;50.35;95340.19;5072029;28;20728;-57
2023/08/22 07:05:21;;;;;;;14.33;11.30;;;29.30;81.10;;;30.30;49.42;95346.63;5074309;28;20252;-62
2023/08/22 07:07:48;;;;;;;29.73;12.93;;;29.50;80.20;;;30.48;48.83;95348.22;5073118;28;20210;-57
2023/08/22 07:10:16;;;;;;;13.47;10.73;;;29.60;79.80;;;30.63;48.74;95344.03;5071570;28;20204;-60
2023/08/22 07:12:43;;;;;;;17.97;11.10;;;29.80;79.10;;;30.80;48.61;95344.78;5071691;28;20211;-58
2023/08/22 07:15:11;;;;;;;12.05;9.75;;;29.90;77.80;;;30.96;48.02;95339.50;5070269;28;20208;-58
2023/08/22 07:17:38;;;;;;;13.50;10.37;;;30.10;77.40;;;31.15;47.88;95339.97;5075077;28;20671;-60
2023/08/22 07:20:07;;;;;;;18.17;10.80;;;30.30;77.20;;;31.26;47.51;95336.25;5069893;28;20204;-60
2023/08/22 07:22:36;;;;;;;15.53;11.70;;;30.40;76.30;;;31.33;47.65;95345.03;5068964;28;20773;-60
2023/08/22 07:25:04;;;;;;;19.90;11.88;;;30.50;75.60;;;31.35;47.17;95336.63;5068179;28;20207;-57
2023/08/22 07:27:32;;;;;;;11.43;10.32;;;30.60;74.50;;;31.33;46.43;95339.59;5076381;28;20207;-58
2023/08/22 07:29:59;;;;;;;17.88;11.55;;;30.60;73.90;;;31.33;46.11;95341.50;5068407;28;20208;-59
2023/08/22 07:32:26;;;;;;;13.38;10.25;;;30.60;73.60;;;31.33;46.71;95341.50;5074976;28;20212;-57
2023/08/22 07:34:54;;;;;;;13.15;11.13;;;30.60;73.20;;;31.35;45.98;95329.25;5067779;28;20246;-56
2023/08/22 07:37:21;;;;;;;17.50;11.70;;;30.60;73.20;;;31.46;46.43;95338.31;5075397;28;20208;-58
2023/08/22 07:39:50;;;;;;;18.70;9.93;;;30.60;73.40;;;31.65;46.66;95338.75;5067372;28;20282;-61
2023/08/22 07:42:17;;;;;;;16.83;10.52;;;30.80;73.50;;;31.92;46.00;95344.09;5071675;28;20232;-57
2023/08/22 07:44:44;;;;;;;26.40;11.05;;;31.00;72.50;;;32.19;45.60;95336.91;5073081;28;20285;-61
2023/08/22 07:47:12;;;;;;;17.83;10.45;;;31.30;72.10;;;32.49;44.90;95333.50;5070490;28;20208;-59
2023/08/22 07:49:39;;;;;;;22.63;10.00;;;31.60;71.70;;;32.77;44.70;95334.16;5073718;28;20220;-56
2023/08/22 07:52:08;;;;;;;13.40;9.18;;;31.90;70.70;;;33.02;44.58;95339.63;5069213;28;20291;-57
2023/08/22 07:54:35;;;;;;;14.52;10.43;;;32.20;69.80;;;33.28;43.47;95333.41;5070515;28;20349;-57
2023/08/22 07:57:04;;;;;;;12.77;10.15;;;32.40;69.00;;;33.52;43.38;95329.03;5072289;28;20285;-59
2023/08/22 07:59:31;;;;;;;27.42;9.38;;;32.60;68.40;;;33.81;43.73;95333.16;5070809;28;20272;-57
2023/08/22 08:01:58;;;;;;;10.65;9.55;;;32.90;67.90;;;34.09;43.03;95334.44;5068606;28;20228;-60
2023/08/22 08:04:26;;;;;;;10.30;9.07;;;33.20;67.00;;;34.35;42.85;95331.63;5074097;28;20301;-56
2023/08/22 08:06:54;;;;;;;26.42;9.73;;;33.40;66.30;;;34.60;41.41;95327.97;5077524;28;20212;-56
2023/08/22 08:09:22;;;;;;;12.80;10.07;;;33.70;64.90;;;34.90;41.57;95335.19;5073337;28;20650;-61
2023/08/22 08:11:49;;;;;;;10.38;8.82;;;34.00;63.80;;;35.04;40.55;95329.09;5069154;28;20219;-56
2023/08/22 08:14:18;;;;;;;9.18;7.93;;;34.30;62.60;;;35.16;38.54;95329.56;5073462;28;20692;-59
2023/08/22 08:16:45;;;;;;;10.32;9.25;;;34.50;59.80;;;35.21;38.90;95324.03;5068682;28;20265;-61
2023/08/22 08:19:13;;;;;;;11.00;9.00;;;34.50;59.80;;;35.30;39.51;95327.03;5071535;28;20223;-58
2023/08/22 08:21:40;;;;;;;12.65;8.63;;;34.70;60.30;;;35.46;39.84;95324.97;5065197;28;20211;-60
2023/08/22 08:24:08;;;;;;;10.23;9.13;;;34.80;60.10;;;35.68;38.73;95324.47;5069528;28;20703;-60
2023/08/22 08:26:35;;;;;;;10.48;8.52;;;35.10;60.30;;;35.87;39.09;95316.41;5072964;28;20208;-59
2023/08/22 08:29:03;;;;;;;12.68;9.27;;;35.30;59.50;;;36.07;38.94;95329.88;5068759;28;20234;-59
2023/08/22 08:31:31;;;;;;;12.20;8.23;;;35.40;59.00;;;36.19;37.61;95324.00;5068544;28;20200;-56
2023/08/22 08:33:59;;;;;;;15.63;8.10;;;35.60;58.20;;;36.19;37.53;95317.69;5073182;28;20227;-60
2023/08/22 08:36:26;;;;;;;16.42;9.60;;;35.50;57.70;;;36.15;37.43;95324.88;5068188;28;20200;-59
2023/08/22 08:38:53;;;;;;;19.27;9.18;;;35.50;57.50;;;36.05;37.91;95318.41;5073862;28;20223;-57
2023/08/22 08:41:22;;;;;;;9.48;7.38;;;35.40;57.20;;;36.00;37.84;95318.44;5067500;28;20284;-56
2023/08/22 08:43:49;;;;;;;7.82;7.00;;;35.30;57.20;;;35.99;36.88;95316.81;5075781;28;20263;-61
2023/08/22 08:46:16;;;;;;;14.23;8.48;;;35.20;56.60;;;36.03;37.21;95314.31;5067219;28;20215;-56
2023/08/22 08:48:45;;;;;;;9.43;8.25;;;35.20;56.60;;;36.01;37.21;95314.59;5072906;28;20224;-58
2023/08/22 08:51:13;;;;;;;10.20;7.38;;;35.30;56.40;;;36.05;36.21;95318.41;5075918;28;20211;-54
2023/08/22 08:53:40;;;;;;;11.50;8.18;;;35.20;55.60;;;36.10;36.63;95312.06;5075937;28;20251;-56
2023/08/22 08:56:09;;;;;;;15.20;8.85;;;35.30;56.40;;;36.14;37.07;95313.06;5075840;28;20200;-61
2023/08/22 08:58:39;;;;;;;13.88;8.82;;;35.30;56.00;;;36.17;36.17;95311.69;5075456;28;20216;-60
2023/08/22 09:01:07;;;;;;;21.08;9.52;;;35.40;55.70;;;36.19;36.44;95304.81;5076198;28;20206;-62
2023/08/22 09:03:34;;;;;;;14.32;9.07;;;35.40;55.50;;;36.30;36.18;95304.72;5068723;28;20273;-60
2023/08/22 09:06:03;;;;;;;9.93;8.07;;;35.50;55.60;;;36.40;36.04;95304.59;5079210;28;20888;-57
2023/08/22 09:08:30;;;;;;;13.02;8.60;;;35.60;55.40;;;36.58;35.89;95297.50;5073574;28;20282;-57
2023/08/22 09:10:58;;;;;;;15.98;8.68;;;35.70;55.20;;;36.67;35.98;95300.38;5075179;28;20222;-55
2023/08/22 09:13:26;;;;;;;10.13;8.20;;;35.80;54.60;;;36.65;35.63;95297.94;5076050;28;20333;-56
2023/08/22 09:15:59;;;;;;;12.82;7.35;;;35.80;54.20;;;36.74;34.93;95301.69;5073062;28;20195;-56
2023/08/22 09:18:27;;;;;;;8.52;6.63;;;35.80;53.80;;;36.88;34.71;95295.47;5072680;28;20311;-61
2023/08/22 09:20:59;;;;;;;7.70;7.05;;;36.00;53.40;;;36.95;34.66;95298.63;5069271;28;20279;-60
2023/08/22 09:23:30;;;;;;;14.30;7.05;;;36.10;52.90;;;36.97;33.86;95297.22;5068503;28;20243;-61
2023/08/22 09:25:57;;;;;;;11.05;6.05;;;36.10;51.90;;;36.89;33.41;95291.59;5076340;28;20206;-59
2023/08/22 09:28:24;;;;;;;12.13;5.47;;;36.10;50.80;;;36.78;32.68;95289.03;5071330;28;20323;-61
2023/08/22 09:30:53;;;;;;;13.23;5.38;;;36.00;49.70;;;36.74;32.83;95290.72;5076186;28;20319;-60
2023/08/22 09:33:20;;;;;;;10.02;6.07;;;35.90;50.10;;;36.77;32.41;95290.13;5069196;28;20316;-56
2023/08/22 09:35:48;;;;;;;19.02;6.03;;;35.90;50.00;;;36.83;32.35;95287.31;5078448;28;20368;-56
2023/08/22 09:38:15;;;;;;;11.52;5.95;;;35.90;49.80;;;36.84;32.44;95287.03;5069120;28;20281;-61
2023/08/22 09:40:56;;;;;;;15.55;6.63;;;36.00;49.20;;;36.81;31.27;95284.88;5074114;28;20212;-60
2023/08/22 09:43:24;;;;;;;19.45;6.78;;;36.00;48.90;;;36.80;31.87;95276.94;5073318;28;20232;-60
2023/08/22 09:45:52;;;;;;;6.15;5.68;;;36.00;48.90;;;36.78;31.53;95275.31;5069580;28;20273;-56
2023/08/22 09:48:25;;;;;;;12.35;6.40;;;36.00;48.90;;;36.76;31.64;95274.81;5077079;28;20228;-60
2023/08/22 09:50:58;;;;;;;7.55;6.13;;;35.90;48.40;;;36.73;31.04;95272.63;5070283;28;20272;-56
2023/08/22 09:53:26;;;;;;;14.40;6.03;;;35.90;48.20;;;36.72;31.56;95257.28;5076558;28;20235;-57
2023/08/22 09:55:55;;;;;;;8.70;6.35;;;35.90;48.40;;;36.72;31.27;95251.78;5070704;28;20272;-60
2023/08/22 09:58:23;;;;;;;7.47;4.90;;;35.90;47.90;;;36.75;31.41;95251.22;5073343;28;20299;-58
2023/08/22 10:00:51;;;;;;;14.32;5.82;;;35.90;47.90;;;36.83;30.73;95248.94;5072586;28;20227;-56
2023/08/22 10:03:18;;;;;;;8.35;6.38;;;36.00;47.70;;;36.84;30.98;95245.91;5073100;28;20235;-56
2023/08/22 10:05:47;;;;;;;12.52;6.72;;;36.00;47.70;;;36.88;30.84;95249.66;5080316;28;20822;-56
2023/08/22 10:08:14;;;;;;;8.52;6.32;;;36.00;47.60;;;36.91;31.18;95240.03;5070997;28;20321;-63
2023/08/22 10:10:43;;;;;;;12.65;6.18;;;36.10;47.50;;;36.90;30.68;95238.38;5073600;28;20207;-56
2023/08/22 10:13:11;;;;;;;17.35;6.15;;;36.10;47.80;;;36.89;30.74;95236.75;5073481;28;20220;-56